sensor_id;sensor_type;location;lat;lon;timestamp;temperature;humidity
38582;DHT22;24349;53.720;10.014;2023-02-21T00:01:26;8.70;99.90
38582;DHT22;24349;53.720;10.014;2023-02-21T00:04:10;8.70;99.90
38582;DHT22;24349;53.720;10.014;2023-02-21T00:06:54;8.70;99.90
38582;DHT22;24349;53.720;10.014;2023-02-21T00:09:38;8.70;99.90
38582;DHT22;24349;53.720;10.014;2023-02-21T00:12:22;8.70;99.90
38582;DHT22;24349;53.720;10.014;2023-02-21T00:15:06;8.70;99.90
38582;DHT22;24349;53.720;10.014;2023-02-21T00:17:50;8.70;99.90
38582;DHT22;24349;53.720;10.014;2023-02-21T00:20:34;8.70;99.90
38582;DHT22;24349;53.720;10.014;2023-02-21T00:23:19;8.70;99.90
38582;DHT22;24349;53.720;10.014;2023-02-21T00:26:03;8.70;99.90
38582;DHT22;24349;53.720;10.014;2023-02-21T00:28:46;8.60;99.90
38582;DHT22;24349;53.720;10.014;2023-02-21T00:31:31;8.70;99.90
38582;DHT22;24349;53.720;10.014;2023-02-21T00:34:15;8.70;99.90
38582;DHT22;24349;53.720;10.014;2023-02-21T00:36:58;8.70;99.90
38582;DHT22;24349;53.720;10.014;2023-02-21T00:39:42;8.70;99.90
38582;DHT22;24349;53.720;10.014;2023-02-21T00:42:26;8.70;99.90
38582;DHT22;24349;53.720;10.014;2023-02-21T00:45:10;8.70;99.90
38582;DHT22;24349;53.720;10.014;2023-02-21T00:47:54;8.60;99.90
38582;DHT22;24349;53.720;10.014;2023-02-21T00:50:38;8.60;99.90
38582;DHT22;24349;53.720;10.014;2023-02-21T00:53:26;8.60;99.90
38582;DHT22;24349;53.720;10.014;2023-02-21T00:56:10;8.70;99.90
38582;DHT22;24349;53.720;10.014;2023-02-21T00:58:55;8.60;99.90
38582;DHT22;24349;53.720;10.014;2023-02-21T01:01:39;8.60;99.90
38582;DHT22;24349;53.720;10.014;2023-02-21T01:04:23;8.60;99.90
38582;DHT22;24349;53.720;10.014;2023-02-21T01:07:07;8.70;99.90
38582;DHT22;24349;53.720;10.014;2023-02-21T01:09:51;8.70;99.90
38582;DHT22;24349;53.720;10.014;2023-02-21T01:12:35;8.70;99.90
38582;DHT22;24349;53.720;10.014;2023-02-21T01:15:19;8.70;99.90
38582;DHT22;24349;53.720;10.014;2023-02-21T01:18:04;8.60;99.90
38582;DHT22;24349;53.720;10.014;2023-02-21T01:20:48;8.60;99.90
38582;DHT22;24349;53.720;10.014;2023-02-21T01:23:33;8.60;99.90
38582;DHT22;24349;53.720;10.014;2023-02-21T01:26:17;8.60;99.90
38582;DHT22;24349;53.720;10.014;2023-02-21T01:29:01;8.70;99.90
38582;DHT22;24349;53.720;10.014;2023-02-21T01:31:45;8.70;99.90
38582;DHT22;24349;53.720;10.014;2023-02-21T01:34:29;8.70;99.90
38582;DHT22;24349;53.720;10.014;2023-02-21T01:37:13;8.70;99.90
38582;DHT22;24349;53.720;10.014;2023-02-21T01:39:57;8.70;99.90
38582;DHT22;24349;53.720;10.014;2023-02-21T01:42:41;8.70;99.90
38582;DHT22;24349;53.720;10.014;2023-02-21T01:48:18;8.70;99.90
38582;DHT22;24349;53.720;10.014;2023-02-21T01:51:04;8.70;99.90
38582;DHT22;24349;53.720;10.014;2023-02-21T01:53:50;8.70;99.90
38582;DHT22;24349;53.720;10.014;2023-02-21T01:56:36;8.70;99.90
38582;DHT22;24349;53.720;10.014;2023-02-21T01:59:21;8.80;99.90
38582;DHT22;24349;53.720;10.014;2023-02-21T02:02:24;8.80;99.90
38582;DHT22;24349;53.720;10.014;2023-02-21T02:05:10;8.80;99.90
38582;DHT22;24349;53.720;10.014;2023-02-21T02:07:55;8.70;99.90
38582;DHT22;24349;53.720;10.014;2023-02-21T02:10:40;8.70;99.90
38582;DHT22;24349;53.720;10.014;2023-02-21T02:16:13;8.70;99.90
38582;DHT22;24349;53.720;10.014;2023-02-21T02:18:57;8.70;99.90
38582;DHT22;24349;53.720;10.014;2023-02-21T02:24:44;8.60;99.90
38582;DHT22;24349;53.720;10.014;2023-02-21T02:27:30;8.60;99.90
38582;DHT22;24349;53.720;10.014;2023-02-21T02:33:07;8.60;99.90
38582;DHT22;24349;53.720;10.014;2023-02-21T02:38:16;8.70;99.90
38582;DHT22;24349;53.720;10.014;2023-02-21T02:41:03;8.60;99.90
38582;DHT22;24349;53.720;10.014;2023-02-21T02:46:26;8.60;99.90
38582;DHT22;24349;53.720;10.014;2023-02-21T02:51:21;8.60;99.90
38582;DHT22;24349;53.720;10.014;2023-02-21T02:53:46;8.50;99.90
38582;DHT22;24349;53.720;10.014;2023-02-21T02:56:14;8.50;99.90
38582;DHT22;24349;53.720;10.014;2023-02-21T02:58:46;8.50;99.90
38582;DHT22;24349;53.720;10.014;2023-02-21T03:12:34;8.40;99.90
38582;DHT22;24349;53.720;10.014;2023-02-21T03:15:10;8.30;99.90
38582;DHT22;24349;53.720;10.014;2023-02-21T03:17:44;8.20;99.90
38582;DHT22;24349;53.720;10.014;2023-02-21T03:20:12;8.30;99.90
38582;DHT22;24349;53.720;10.014;2023-02-21T03:22:39;8.20;99.90
38582;DHT22;24349;53.720;10.014;2023-02-21T03:25:07;8.20;99.90
38582;DHT22;24349;53.720;10.014;2023-02-21T03:27:33;8.20;99.90
38582;DHT22;24349;53.720;10.014;2023-02-21T03:30:03;8.10;99.90
38582;DHT22;24349;53.720;10.014;2023-02-21T03:32:37;8.10;99.90
38582;DHT22;24349;53.720;10.014;2023-02-21T03:35:04;8.20;99.90
38582;DHT22;24349;53.720;10.014;2023-02-21T03:37:37;8.10;99.90
38582;DHT22;24349;53.720;10.014;2023-02-21T03:40:12;8.10;99.90
38582;DHT22;24349;53.720;10.014;2023-02-21T03:42:38;8.10;99.90
38582;DHT22;24349;53.720;10.014;2023-02-21T03:45:04;8.10;99.90
38582;DHT22;24349;53.720;10.014;2023-02-21T03:47:29;8.10;99.90
38582;DHT22;24349;53.720;10.014;2023-02-21T03:49:55;8.20;99.90
38582;DHT22;24349;53.720;10.014;2023-02-21T03:52:21;8.10;99.90
38582;DHT22;24349;53.720;10.014;2023-02-21T03:54:46;8.10;99.90
38582;DHT22;24349;53.720;10.014;2023-02-21T03:57:12;8.10;99.90
38582;DHT22;24349;53.720;10.014;2023-02-21T03:59:38;8.10;99.90
38582;DHT22;24349;53.720;10.014;2023-02-21T04:02:03;8.10;99.90
38582;DHT22;24349;53.720;10.014;2023-02-21T04:04:29;8.00;99.90
38582;DHT22;24349;53.720;10.014;2023-02-21T04:06:55;8.00;99.90
38582;DHT22;24349;53.720;10.014;2023-02-21T04:09:20;8.00;99.90
38582;DHT22;24349;53.720;10.014;2023-02-21T04:11:46;8.00;99.90
38582;DHT22;24349;53.720;10.014;2023-02-21T04:14:12;8.00;99.90
38582;DHT22;24349;53.720;10.014;2023-02-21T04:16:38;8.00;99.90
38582;DHT22;24349;53.720;10.014;2023-02-21T04:19:04;8.00;99.90
38582;DHT22;24349;53.720;10.014;2023-02-21T04:21:30;8.00;99.90
38582;DHT22;24349;53.720;10.014;2023-02-21T04:23:55;8.00;99.90
38582;DHT22;24349;53.720;10.014;2023-02-21T04:26:22;8.00;99.90
38582;DHT22;24349;53.720;10.014;2023-02-21T04:28:51;8.00;99.90
38582;DHT22;24349;53.720;10.014;2023-02-21T04:31:17;8.00;99.90
38582;DHT22;24349;53.720;10.014;2023-02-21T04:33:43;8.00;99.90
38582;DHT22;24349;53.720;10.014;2023-02-21T04:36:09;8.00;99.90
38582;DHT22;24349;53.720;10.014;2023-02-21T04:38:35;8.00;99.90
38582;DHT22;24349;53.720;10.014;2023-02-21T04:41:03;8.00;99.90
38582;DHT22;24349;53.720;10.014;2023-02-21T04:43:28;8.00;99.90
38582;DHT22;24349;53.720;10.014;2023-02-21T04:45:54;8.00;99.90
38582;DHT22;24349;53.720;10.014;2023-02-21T04:48:20;7.90;99.90
38582;DHT22;24349;53.720;10.014;2023-02-21T04:50:45;8.00;99.90
38582;DHT22;24349;53.720;10.014;2023-02-21T04:53:11;7.90;99.90
38582;DHT22;24349;53.720;10.014;2023-02-21T04:55:37;8.00;99.90
38582;DHT22;24349;53.720;10.014;2023-02-21T04:58:02;8.00;99.90
38582;DHT22;24349;53.720;10.014;2023-02-21T05:00:28;7.90;99.90
38582;DHT22;24349;53.720;10.014;2023-02-21T05:02:54;7.90;99.90
38582;DHT22;24349;53.720;10.014;2023-02-21T05:05:19;7.90;99.90
38582;DHT22;24349;53.720;10.014;2023-02-21T05:07:45;7.80;99.90
38582;DHT22;24349;53.720;10.014;2023-02-21T05:10:11;7.90;99.90
38582;DHT22;24349;53.720;10.014;2023-02-21T05:12:37;7.90;99.90
38582;DHT22;24349;53.720;10.014;2023-02-21T05:15:05;7.90;99.90
38582;DHT22;24349;53.720;10.014;2023-02-21T05:17:30;7.80;99.90
38582;DHT22;24349;53.720;10.014;2023-02-21T05:19:56;7.80;99.90
38582;DHT22;24349;53.720;10.014;2023-02-21T05:22:22;7.80;99.90
38582;DHT22;24349;53.720;10.014;2023-02-21T05:24:48;7.80;99.90
38582;DHT22;24349;53.720;10.014;2023-02-21T05:27:21;7.80;99.90
38582;DHT22;24349;53.720;10.014;2023-02-21T05:29:51;7.70;99.90
38582;DHT22;24349;53.720;10.014;2023-02-21T05:32:20;7.70;99.90
38582;DHT22;24349;53.720;10.014;2023-02-21T05:34:45;7.70;99.90
38582;DHT22;24349;53.720;10.014;2023-02-21T05:37:16;7.70;99.90
38582;DHT22;24349;53.720;10.014;2023-02-21T05:39:45;7.70;99.90
38582;DHT22;24349;53.720;10.014;2023-02-21T05:42:11;7.60;99.90
38582;DHT22;24349;53.720;10.014;2023-02-21T05:44:36;7.60;99.90
38582;DHT22;24349;53.720;10.014;2023-02-21T05:47:02;7.60;99.90
38582;DHT22;24349;53.720;10.014;2023-02-21T05:49:28;7.60;99.90
38582;DHT22;24349;53.720;10.014;2023-02-21T05:51:54;7.60;99.90
38582;DHT22;24349;53.720;10.014;2023-02-21T05:54:20;7.60;99.90
38582;DHT22;24349;53.720;10.014;2023-02-21T05:56:48;7.60;99.90
38582;DHT22;24349;53.720;10.014;2023-02-21T05:59:15;7.60;99.90
38582;DHT22;24349;53.720;10.014;2023-02-21T06:01:41;7.60;99.90
38582;DHT22;24349;53.720;10.014;2023-02-21T06:04:07;7.60;99.90
38582;DHT22;24349;53.720;10.014;2023-02-21T06:06:34;7.50;99.90
38582;DHT22;24349;53.720;10.014;2023-02-21T06:08:59;7.60;99.90
38582;DHT22;24349;53.720;10.014;2023-02-21T06:11:28;7.50;99.90
38582;DHT22;24349;53.720;10.014;2023-02-21T06:13:56;7.50;99.90
38582;DHT22;24349;53.720;10.014;2023-02-21T06:16:22;7.50;99.90
38582;DHT22;24349;53.720;10.014;2023-02-21T06:18:53;7.50;99.90
38582;DHT22;24349;53.720;10.014;2023-02-21T06:21:19;7.50;99.90
38582;DHT22;24349;53.720;10.014;2023-02-21T06:23:45;7.50;99.90
38582;DHT22;24349;53.720;10.014;2023-02-21T06:26:11;7.50;99.90
38582;DHT22;24349;53.720;10.014;2023-02-21T06:28:37;7.50;99.90
38582;DHT22;24349;53.720;10.014;2023-02-21T06:31:03;7.50;99.90
38582;DHT22;24349;53.720;10.014;2023-02-21T06:33:29;7.50;99.90
38582;DHT22;24349;53.720;10.014;2023-02-21T06:35:55;7.50;99.90
38582;DHT22;24349;53.720;10.014;2023-02-21T06:38:21;7.40;99.90
38582;DHT22;24349;53.720;10.014;2023-02-21T06:40:47;7.40;99.90
38582;DHT22;24349;53.720;10.014;2023-02-21T06:43:12;7.50;99.90
38582;DHT22;24349;53.720;10.014;2023-02-21T06:45:38;7.50;99.90
38582;DHT22;24349;53.720;10.014;2023-02-21T06:48:04;7.40;99.90
38582;DHT22;24349;53.720;10.014;2023-02-21T06:50:29;7.40;99.90
38582;DHT22;24349;53.720;10.014;2023-02-21T06:52:55;7.40;99.90
38582;DHT22;24349;53.720;10.014;2023-02-21T06:55:21;7.30;99.90
38582;DHT22;24349;53.720;10.014;2023-02-21T06:57:47;7.40;99.90
38582;DHT22;24349;53.720;10.014;2023-02-21T07:00:14;7.40;99.90
38582;DHT22;24349;53.720;10.014;2023-02-21T07:02:40;7.40;99.90
38582;DHT22;24349;53.720;10.014;2023-02-21T07:05:06;7.40;99.90
38582;DHT22;24349;53.720;10.014;2023-02-21T07:07:32;7.50;99.90
38582;DHT22;24349;53.720;10.014;2023-02-21T07:09:58;7.50;99.90
38582;DHT22;24349;53.720;10.014;2023-02-21T07:12:24;7.50;99.90
38582;DHT22;24349;53.720;10.014;2023-02-21T07:14:49;7.50;99.90
38582;DHT22;24349;53.720;10.014;2023-02-21T07:17:15;7.50;99.90
38582;DHT22;24349;53.720;10.014;2023-02-21T07:19:41;7.50;99.90
38582;DHT22;24349;53.720;10.014;2023-02-21T07:22:07;7.50;99.90
38582;DHT22;24349;53.720;10.014;2023-02-21T07:24:33;7.60;99.90
38582;DHT22;24349;53.720;10.014;2023-02-21T07:26:59;7.60;99.90
38582;DHT22;24349;53.720;10.014;2023-02-21T07:29:25;7.70;99.90
38582;DHT22;24349;53.720;10.014;2023-02-21T07:31:51;7.80;99.90
38582;DHT22;24349;53.720;10.014;2023-02-21T07:34:16;7.80;99.90
38582;DHT22;24349;53.720;10.014;2023-02-21T07:36:44;7.90;99.90
38582;DHT22;24349;53.720;10.014;2023-02-21T07:39:10;7.90;99.90
38582;DHT22;24349;53.720;10.014;2023-02-21T07:41:36;8.00;99.90
38582;DHT22;24349;53.720;10.014;2023-02-21T07:44:01;8.10;99.90
38582;DHT22;24349;53.720;10.014;2023-02-21T07:46:27;8.10;99.90
38582;DHT22;24349;53.720;10.014;2023-02-21T07:48:53;8.10;99.90
38582;DHT22;24349;53.720;10.014;2023-02-21T07:51:19;8.10;99.90
38582;DHT22;24349;53.720;10.014;2023-02-21T07:53:45;8.20;99.90
38582;DHT22;24349;53.720;10.014;2023-02-21T07:56:10;8.40;99.90
38582;DHT22;24349;53.720;10.014;2023-02-21T07:58:36;8.90;99.90
38582;DHT22;24349;53.720;10.014;2023-02-21T08:01:03;9.60;99.90
38582;DHT22;24349;53.720;10.014;2023-02-21T08:03:29;9.80;99.90
38582;DHT22;24349;53.720;10.014;2023-02-21T08:05:59;9.90;99.90
38582;DHT22;24349;53.720;10.014;2023-02-21T08:08:25;9.90;99.90
38582;DHT22;24349;53.720;10.014;2023-02-21T08:10:51;10.40;99.90
38582;DHT22;24349;53.720;10.014;2023-02-21T08:13:16;11.20;99.90
38582;DHT22;24349;53.720;10.014;2023-02-21T08:15:42;11.70;99.90
38582;DHT22;24349;53.720;10.014;2023-02-21T08:18:19;12.00;99.90
38582;DHT22;24349;53.720;10.014;2023-02-21T08:20:49;12.30;99.90
38582;DHT22;24349;53.720;10.014;2023-02-21T08:23:14;12.80;99.90
38582;DHT22;24349;53.720;10.014;2023-02-21T08:25:40;12.30;99.90
38582;DHT22;24349;53.720;10.014;2023-02-21T08:28:06;11.60;99.90
38582;DHT22;24349;53.720;10.014;2023-02-21T08:30:31;11.20;99.90
38582;DHT22;24349;53.720;10.014;2023-02-21T08:32:57;10.90;99.90
38582;DHT22;24349;53.720;10.014;2023-02-21T08:35:23;11.00;99.90
38582;DHT22;24349;53.720;10.014;2023-02-21T08:37:49;11.50;99.90
38582;DHT22;24349;53.720;10.014;2023-02-21T08:40:18;12.20;99.90
38582;DHT22;24349;53.720;10.014;2023-02-21T08:42:47;12.80;99.90
38582;DHT22;24349;53.720;10.014;2023-02-21T08:45:16;12.70;99.90
38582;DHT22;24349;53.720;10.014;2023-02-21T08:47:41;12.10;99.90
38582;DHT22;24349;53.720;10.014;2023-02-21T08:50:07;11.60;99.90
38582;DHT22;24349;53.720;10.014;2023-02-21T08:52:33;11.50;99.90
38582;DHT22;24349;53.720;10.014;2023-02-21T08:54:58;11.20;99.90
38582;DHT22;24349;53.720;10.014;2023-02-21T08:57:24;10.90;99.90
38582;DHT22;24349;53.720;10.014;2023-02-21T08:59:50;11.10;99.90
38582;DHT22;24349;53.720;10.014;2023-02-21T09:02:17;11.20;99.90
38582;DHT22;24349;53.720;10.014;2023-02-21T09:04:44;11.40;99.90
38582;DHT22;24349;53.720;10.014;2023-02-21T09:07:14;11.10;99.90
38582;DHT22;24349;53.720;10.014;2023-02-21T09:09:40;10.70;99.90
38582;DHT22;24349;53.720;10.014;2023-02-21T09:12:06;10.40;99.90
38582;DHT22;24349;53.720;10.014;2023-02-21T09:14:36;10.30;99.90
38582;DHT22;24349;53.720;10.014;2023-02-21T09:17:04;10.30;99.90
38582;DHT22;24349;53.720;10.014;2023-02-21T09:19:30;10.30;99.90
38582;DHT22;24349;53.720;10.014;2023-02-21T09:21:56;10.30;99.90
38582;DHT22;24349;53.720;10.014;2023-02-21T09:24:23;10.30;99.90
38582;DHT22;24349;53.720;10.014;2023-02-21T09:26:57;10.30;99.90
38582;DHT22;24349;53.720;10.014;2023-02-21T09:29:24;10.50;99.90
38582;DHT22;24349;53.720;10.014;2023-02-21T09:31:50;10.70;99.90
38582;DHT22;24349;53.720;10.014;2023-02-21T09:34:16;10.60;99.90
38582;DHT22;24349;53.720;10.014;2023-02-21T09:36:43;10.40;99.90
38582;DHT22;24349;53.720;10.014;2023-02-21T09:39:09;10.20;99.90
38582;DHT22;24349;53.720;10.014;2023-02-21T09:41:36;10.10;99.90
38582;DHT22;24349;53.720;10.014;2023-02-21T09:44:03;10.20;99.90
38582;DHT22;24349;53.720;10.014;2023-02-21T09:46:44;10.30;99.90
38582;DHT22;24349;53.720;10.014;2023-02-21T09:49:23;10.40;99.90
38582;DHT22;24349;53.720;10.014;2023-02-21T09:51:52;10.90;99.90
38582;DHT22;24349;53.720;10.014;2023-02-21T09:54:31;11.50;99.90
38582;DHT22;24349;53.720;10.014;2023-02-21T09:57:01;11.50;99.90
38582;DHT22;24349;53.720;10.014;2023-02-21T09:59:27;11.60;99.90
38582;DHT22;24349;53.720;10.014;2023-02-21T10:03:25;11.30;99.90
38582;DHT22;24349;53.720;10.014;2023-02-21T10:08:33;10.40;99.90
38582;DHT22;24349;53.720;10.014;2023-02-21T10:11:19;10.40;99.90
38582;DHT22;24349;53.720;10.014;2023-02-21T10:14:11;10.60;99.90
38582;DHT22;24349;53.720;10.014;2023-02-21T10:16:47;10.90;99.90
38582;DHT22;24349;53.720;10.014;2023-02-21T10:19:35;11.50;99.90
38582;DHT22;24349;53.720;10.014;2023-02-21T10:22:13;11.80;99.90
38582;DHT22;24349;53.720;10.014;2023-02-21T10:24:41;12.20;99.90
38582;DHT22;24349;53.720;10.014;2023-02-21T10:27:17;12.50;99.90
38582;DHT22;24349;53.720;10.014;2023-02-21T10:32:29;13.20;99.90
38582;DHT22;24349;53.720;10.014;2023-02-21T10:34:55;12.90;99.90
38582;DHT22;24349;53.720;10.014;2023-02-21T10:40:32;12.00;99.90
38582;DHT22;24349;53.720;10.014;2023-02-21T10:48:35;12.50;99.90
38582;DHT22;24349;53.720;10.014;2023-02-21T10:51:05;12.50;99.90
38582;DHT22;24349;53.720;10.014;2023-02-21T10:53:49;12.40;99.90
38582;DHT22;24349;53.720;10.014;2023-02-21T10:58:49;11.90;99.90
38582;DHT22;24349;53.720;10.014;2023-02-21T11:01:29;11.70;99.90
38582;DHT22;24349;53.720;10.014;2023-02-21T11:04:01;11.60;99.90
38582;DHT22;24349;53.720;10.014;2023-02-21T11:06:35;11.80;99.90
38582;DHT22;24349;53.720;10.014;2023-02-21T11:09:22;11.70;99.90
38582;DHT22;24349;53.720;10.014;2023-02-21T11:11:48;11.70;99.90
38582;DHT22;24349;53.720;10.014;2023-02-21T11:14:25;11.80;99.90
38582;DHT22;24349;53.720;10.014;2023-02-21T11:17:10;11.70;99.90
38582;DHT22;24349;53.720;10.014;2023-02-21T11:22:10;11.60;99.90
38582;DHT22;24349;53.720;10.014;2023-02-21T11:24:53;11.50;99.90
38582;DHT22;24349;53.720;10.014;2023-02-21T11:27:20;11.70;99.90
38582;DHT22;24349;53.720;10.014;2023-02-21T11:29:48;11.90;99.90
38582;DHT22;24349;53.720;10.014;2023-02-21T11:32:30;12.00;99.90
38582;DHT22;24349;53.720;10.014;2023-02-21T11:37:31;12.30;99.90
38582;DHT22;24349;53.720;10.014;2023-02-21T11:39:57;12.30;99.90
38582;DHT22;24349;53.720;10.014;2023-02-21T11:42:30;12.50;99.90
38582;DHT22;24349;53.720;10.014;2023-02-21T11:45:18;12.10;99.90
38582;DHT22;24349;53.720;10.014;2023-02-21T11:47:55;12.10;99.90
38582;DHT22;24349;53.720;10.014;2023-02-21T11:50:38;12.10;99.90
38582;DHT22;24349;53.720;10.014;2023-02-21T11:53:27;12.30;99.90
38582;DHT22;24349;53.720;10.014;2023-02-21T12:01:58;13.60;99.90
38582;DHT22;24349;53.720;10.014;2023-02-21T12:08:06;14.10;99.90
38582;DHT22;24349;53.720;10.014;2023-02-21T12:16:07;13.90;99.90
38582;DHT22;24349;53.720;10.014;2023-02-21T12:30:20;12.30;99.90
38582;DHT22;24349;53.720;10.014;2023-02-21T12:33:18;12.20;99.90
38582;DHT22;24349;53.720;10.014;2023-02-21T12:39:08;11.80;99.90
38582;DHT22;24349;53.720;10.014;2023-02-21T12:47:12;11.90;99.90
38582;DHT22;24349;53.720;10.014;2023-02-21T12:52:33;11.90;99.90
38582;DHT22;24349;53.720;10.014;2023-02-21T12:55:25;11.90;99.90
38582;DHT22;24349;53.720;10.014;2023-02-21T12:58:12;11.90;99.90
38582;DHT22;24349;53.720;10.014;2023-02-21T13:00:59;12.00;99.90
38582;DHT22;24349;53.720;10.014;2023-02-21T13:09:24;11.70;99.90
38582;DHT22;24349;53.720;10.014;2023-02-21T13:12:08;11.60;99.90
38582;DHT22;24349;53.720;10.014;2023-02-21T13:14:40;11.60;99.90
38582;DHT22;24349;53.720;10.014;2023-02-21T13:17:11;11.50;99.90
38582;DHT22;24349;53.720;10.014;2023-02-21T13:19:59;11.50;99.90
38582;DHT22;24349;53.720;10.014;2023-02-21T13:28:19;11.50;99.90
38582;DHT22;24349;53.720;10.014;2023-02-21T13:30:51;11.20;99.90
38582;DHT22;24349;53.720;10.014;2023-02-21T13:33:43;11.20;99.90
38582;DHT22;24349;53.720;10.014;2023-02-21T13:38:44;11.40;99.90
38582;DHT22;24349;53.720;10.014;2023-02-21T13:41:11;11.40;99.90
38582;DHT22;24349;53.720;10.014;2023-02-21T13:43:50;11.50;99.90
38582;DHT22;24349;53.720;10.014;2023-02-21T13:49:37;11.40;99.90
38582;DHT22;24349;53.720;10.014;2023-02-21T13:57:40;11.20;99.90
38582;DHT22;24349;53.720;10.014;2023-02-21T14:05:23;11.60;99.90
38582;DHT22;24349;53.720;10.014;2023-02-21T14:08:03;11.70;99.90
38582;DHT22;24349;53.720;10.014;2023-02-21T14:10:39;11.80;99.90
38582;DHT22;24349;53.720;10.014;2023-02-21T14:13:38;11.80;99.90
38582;DHT22;24349;53.720;10.014;2023-02-21T14:21:11;11.70;99.90
38582;DHT22;24349;53.720;10.014;2023-02-21T14:23:45;11.70;99.90
38582;DHT22;24349;53.720;10.014;2023-02-21T14:26:45;11.50;99.90
38582;DHT22;24349;53.720;10.014;2023-02-21T14:34:51;11.70;99.90
38582;DHT22;24349;53.720;10.014;2023-02-21T14:37:37;11.80;99.90
38582;DHT22;24349;53.720;10.014;2023-02-21T14:45:55;11.30;99.90
38582;DHT22;24349;53.720;10.014;2023-02-21T14:51:52;11.40;99.90
38582;DHT22;24349;53.720;10.014;2023-02-21T15:03:32;11.10;99.90
38582;DHT22;24349;53.720;10.014;2023-02-21T15:06:05;11.00;99.90
38582;DHT22;24349;53.720;10.014;2023-02-21T15:08:47;10.80;99.90
38582;DHT22;24349;53.720;10.014;2023-02-21T15:11:35;10.80;99.90
38582;DHT22;24349;53.720;10.014;2023-02-21T15:14:31;10.90;99.90
38582;DHT22;24349;53.720;10.014;2023-02-21T15:17:09;11.10;99.90
38582;DHT22;24349;53.720;10.014;2023-02-21T15:19:35;10.90;99.90
38582;DHT22;24349;53.720;10.014;2023-02-21T15:25:15;10.80;99.90
38582;DHT22;24349;53.720;10.014;2023-02-21T15:33:12;10.50;99.90
38582;DHT22;24349;53.720;10.014;2023-02-21T15:35:42;10.50;99.90
38582;DHT22;24349;53.720;10.014;2023-02-21T15:38:40;10.50;99.90
38582;DHT22;24349;53.720;10.014;2023-02-21T15:41:27;10.30;99.90
38582;DHT22;24349;53.720;10.014;2023-02-21T15:46:32;10.20;99.90
38582;DHT22;24349;53.720;10.014;2023-02-21T15:49:01;10.20;99.90
38582;DHT22;24349;53.720;10.014;2023-02-21T15:51:28;10.20;99.90
38582;DHT22;24349;53.720;10.014;2023-02-21T15:56:43;10.00;99.90
38582;DHT22;24349;53.720;10.014;2023-02-21T15:59:24;9.90;99.90
38582;DHT22;24349;53.720;10.014;2023-02-21T16:04:43;9.80;99.90
38582;DHT22;24349;53.720;10.014;2023-02-21T16:07:33;9.60;99.90
38582;DHT22;24349;53.720;10.014;2023-02-21T16:10:04;9.60;99.90
38582;DHT22;24349;53.720;10.014;2023-02-21T16:12:37;9.50;99.90
38582;DHT22;24349;53.720;10.014;2023-02-21T16:15:13;9.50;99.90
38582;DHT22;24349;53.720;10.014;2023-02-21T16:17:44;9.60;99.90
38582;DHT22;24349;53.720;10.014;2023-02-21T16:22:39;9.50;99.90
38582;DHT22;24349;53.720;10.014;2023-02-21T16:27:38;9.60;99.90
38582;DHT22;24349;53.720;10.014;2023-02-21T16:30:05;9.60;99.90
38582;DHT22;24349;53.720;10.014;2023-02-21T16:32:31;9.60;99.90
38582;DHT22;24349;53.720;10.014;2023-02-21T16:34:57;9.60;99.90
38582;DHT22;24349;53.720;10.014;2023-02-21T16:37:23;9.60;99.90
38582;DHT22;24349;53.720;10.014;2023-02-21T16:39:50;9.50;99.90
38582;DHT22;24349;53.720;10.014;2023-02-21T16:42:16;9.50;99.90
38582;DHT22;24349;53.720;10.014;2023-02-21T16:44:43;9.50;99.90
38582;DHT22;24349;53.720;10.014;2023-02-21T16:47:13;9.30;99.90
38582;DHT22;24349;53.720;10.014;2023-02-21T16:49:39;9.20;99.90
38582;DHT22;24349;53.720;10.014;2023-02-21T16:52:05;9.20;99.90
38582;DHT22;24349;53.720;10.014;2023-02-21T16:54:30;9.10;99.90
38582;DHT22;24349;53.720;10.014;2023-02-21T16:56:56;9.20;99.90
38582;DHT22;24349;53.720;10.014;2023-02-21T16:59:23;9.20;99.90
38582;DHT22;24349;53.720;10.014;2023-02-21T17:01:49;9.10;99.90
38582;DHT22;24349;53.720;10.014;2023-02-21T17:04:20;9.10;99.90
38582;DHT22;24349;53.720;10.014;2023-02-21T17:06:50;9.20;99.90
38582;DHT22;24349;53.720;10.014;2023-02-21T17:09:20;9.10;99.90
38582;DHT22;24349;53.720;10.014;2023-02-21T17:11:46;9.00;99.90
38582;DHT22;24349;53.720;10.014;2023-02-21T17:14:12;9.00;99.90
38582;DHT22;24349;53.720;10.014;2023-02-21T17:16:38;9.00;99.90
38582;DHT22;24349;53.720;10.014;2023-02-21T17:19:04;9.10;99.90
38582;DHT22;24349;53.720;10.014;2023-02-21T17:21:30;9.10;99.90
38582;DHT22;24349;53.720;10.014;2023-02-21T17:23:56;9.20;99.90
38582;DHT22;24349;53.720;10.014;2023-02-21T17:26:23;9.10;99.90
38582;DHT22;24349;53.720;10.014;2023-02-21T17:28:49;9.10;99.90
38582;DHT22;24349;53.720;10.014;2023-02-21T17:31:16;9.10;99.90
38582;DHT22;24349;53.720;10.014;2023-02-21T17:33:44;9.10;99.90
38582;DHT22;24349;53.720;10.014;2023-02-21T17:36:17;9.10;99.90
38582;DHT22;24349;53.720;10.014;2023-02-21T17:38:42;9.10;99.90
38582;DHT22;24349;53.720;10.014;2023-02-21T17:41:08;9.10;99.90
38582;DHT22;24349;53.720;10.014;2023-02-21T17:43:34;9.10;99.90
38582;DHT22;24349;53.720;10.014;2023-02-21T17:45:59;9.10;99.90
38582;DHT22;24349;53.720;10.014;2023-02-21T17:48:25;9.10;99.90
38582;DHT22;24349;53.720;10.014;2023-02-21T17:50:51;9.10;99.90
38582;DHT22;24349;53.720;10.014;2023-02-21T17:53:16;9.10;99.90
38582;DHT22;24349;53.720;10.014;2023-02-21T17:55:42;9.10;99.90
38582;DHT22;24349;53.720;10.014;2023-02-21T17:58:07;9.10;99.90
38582;DHT22;24349;53.720;10.014;2023-02-21T18:00:34;9.10;99.90
38582;DHT22;24349;53.720;10.014;2023-02-21T18:03:00;9.10;99.90
38582;DHT22;24349;53.720;10.014;2023-02-21T18:05:29;9.10;99.90
38582;DHT22;24349;53.720;10.014;2023-02-21T18:07:56;9.10;99.90
38582;DHT22;24349;53.720;10.014;2023-02-21T18:10:23;9.20;99.90
38582;DHT22;24349;53.720;10.014;2023-02-21T18:12:49;9.10;99.90
38582;DHT22;24349;53.720;10.014;2023-02-21T18:15:15;9.10;99.90
38582;DHT22;24349;53.720;10.014;2023-02-21T18:17:41;9.10;99.90
38582;DHT22;24349;53.720;10.014;2023-02-21T18:20:08;9.10;99.90
38582;DHT22;24349;53.720;10.014;2023-02-21T18:22:35;9.10;99.90
38582;DHT22;24349;53.720;10.014;2023-02-21T18:25:01;9.10;99.90
38582;DHT22;24349;53.720;10.014;2023-02-21T18:27:27;9.00;99.90
38582;DHT22;24349;53.720;10.014;2023-02-21T18:29:52;9.00;99.90
38582;DHT22;24349;53.720;10.014;2023-02-21T18:32:21;8.90;99.90
38582;DHT22;24349;53.720;10.014;2023-02-21T18:34:47;8.90;99.90
38582;DHT22;24349;53.720;10.014;2023-02-21T18:37:13;8.90;99.90
38582;DHT22;24349;53.720;10.014;2023-02-21T18:39:38;8.90;99.90
38582;DHT22;24349;53.720;10.014;2023-02-21T18:42:04;9.10;99.90
38582;DHT22;24349;53.720;10.014;2023-02-21T18:44:30;9.10;99.90